Time;durP1;ratioP1;P1;durP2;ratioP2;P2;SDS_P1;SDS_P2;PMS_P1;PMS_P2;Temp;Humidity;BMP_temperature;BMP_pressure;BME280_temperature;BME280_humidity;BME280_pressure;Samples;Min_cycle;Max_cycle;Signal;HPM_P1;HPM_P2
2023/03/13 07:00:54;;;;;;;8.60;3.70;;;;;;;-145.79;85.93;76461.69;5280739;28;20890;-77
2023/03/13 07:03:27;;;;;;;7.28;3.63;;;;;;;-145.79;85.93;76448.97;5261284;28;20033;-78
2023/03/13 07:05:59;;;;;;;6.22;3.58;;;;;;;-145.79;85.63;76453.22;5269402;28;20025;-78
2023/03/13 07:08:32;;;;;;;7.15;3.13;;;;;;;-145.79;85.53;76451.09;5280682;28;20029;-77
2023/03/13 07:11:06;;;;;;;9.55;4.50;;;;;;;-145.79;85.21;76446.88;5263633;28;20022;-77
2023/03/13 07:13:37;;;;;;;11.25;4.68;;;;;;;-145.79;84.80;76440.50;5259859;28;20500;-77
2023/03/13 07:16:12;;;;;;;9.43;3.70;;;;;;;-145.79;84.72;76425.66;5268386;28;20032;-78
2023/03/13 07:18:43;;;;;;;5.22;3.70;;;;;;;-145.79;84.35;76427.78;5280303;28;20025;-78
2023/03/13 07:21:15;;;;;;;8.90;3.53;;;;;;;-145.79;84.35;76421.44;5279411;28;20028;-78
2023/03/13 07:23:49;;;;;;;6.18;3.13;;;;;;;-145.79;84.14;76421.44;5275090;28;20090;-75
2023/03/13 07:26:20;;;;;;;7.70;3.53;;;;;;;-145.79;83.78;76415.06;5268858;28;20048;-76
2023/03/13 07:28:51;;;;;;;10.75;3.40;;;;;;;-145.79;83.96;76408.72;5260836;28;20064;-76
2023/03/13 07:31:23;;;;;;;5.80;3.05;;;;;;;-145.79;83.78;76415.06;5268258;28;20029;-76
2023/03/13 07:33:57;;;;;;;7.28;2.90;;;;;;;-145.79;83.70;76408.72;5270170;28;20025;-76
2023/03/13 07:36:29;;;;;;;7.85;3.47;;;;;;;-145.79;83.68;76402.38;5270327;28;20022;-75
2023/03/13 07:39:00;;;;;;;8.10;3.00;;;;;;;-145.79;83.62;76402.38;5274365;28;20036;-75
2023/03/13 07:41:32;;;;;;;6.60;3.70;;;;;;;-145.79;83.59;76400.25;5278735;28;20031;-73
2023/03/13 07:44:03;;;;;;;6.97;3.10;;;;;;;-145.79;83.17;76398.13;5278474;28;20029;-74
2023/03/13 07:46:35;;;;;;;7.55;3.13;;;;;;;-145.79;82.99;76406.59;5278959;28;20483;-74
2023/03/13 07:49:06;;;;;;;12.30;4.03;;;;;;;-145.79;83.01;76415.06;5277971;28;20452;-74
2023/03/13 07:51:37;;;;;;;8.68;3.30;;;;;;;-145.79;83.33;76404.47;5257607;28;20035;-74
2023/03/13 07:54:08;;;;;;;7.18;3.33;;;;;;;-145.79;83.94;76408.72;5258407;28;20487;-74
2023/03/13 07:56:40;;;;;;;6.95;3.60;;;;;;;-145.79;83.61;76404.47;5258649;28;20029;-75
2023/03/13 07:59:11;;;;;;;6.30;3.03;;;;;;;-145.79;83.97;76410.84;5257238;28;20068;-75
2023/03/13 08:01:42;;;;;;;9.43;3.35;;;;;;;-145.79;83.81;76404.47;5258265;28;20029;-75
2023/03/13 08:04:14;;;;;;;6.88;3.03;;;;;;;-145.79;84.14;76400.25;5258563;28;20017;-75
2023/03/13 08:06:45;;;;;;;5.60;3.13;;;;;;;-145.79;83.65;76398.13;5258640;28;20025;-75
2023/03/13 08:09:17;;;;;;;9.15;4.25;;;;;;;-145.79;83.58;76396.00;5258129;28;20017;-74
2023/03/13 08:11:49;;;;;;;5.80;3.38;;;;;;;-145.79;83.19;76376.94;5247034;28;20028;-74
2023/03/13 08:14:20;;;;;;;7.50;3.10;;;;;;;-145.79;82.63;76376.94;5243965;28;20104;-75
2023/03/13 08:16:52;;;;;;;7.35;3.30;;;;;;;-145.79;82.23;76359.97;5244470;28;20083;-75
2023/03/13 08:19:23;;;;;;;5.78;3.13;;;;;;;-145.79;81.90;76353.63;5256714;28;20071;-75
2023/03/13 08:21:54;;;;;;;6.45;3.53;;;;;;;-145.79;82.06;76355.75;5265356;28;20048;-74
2023/03/13 08:24:25;;;;;;;6.80;3.00;;;;;;;-145.79;81.29;76351.50;5264325;28;20055;-75
2023/03/13 08:26:57;;;;;;;5.20;3.00;;;;;;;-145.79;81.42;76345.16;5253352;28;20026;-74
2023/03/13 08:29:28;;;;;;;5.22;2.97;;;;;;;-145.79;81.17;76343.03;5244307;28;20067;-74
2023/03/13 08:31:59;;;;;;;8.18;3.60;;;;;;;-145.79;80.62;76326.06;5244276;28;20067;-75
2023/03/13 08:34:31;;;;;;;4.57;2.75;;;;;;;-145.79;80.48;76323.97;5243038;28;20021;-75
2023/03/13 08:37:02;;;;;;;5.78;3.45;;;;;;;-145.79;79.62;76330.31;5243901;28;20041;-74
2023/03/13 08:39:33;;;;;;;5.82;2.70;;;;;;;-145.79;79.37;76309.13;5243766;28;20067;-76
2023/03/13 08:42:07;;;;;;;9.20;4.05;;;;;;;-145.79;78.35;76300.66;5260256;28;20027;-75
2023/03/13 08:44:38;;;;;;;6.93;2.50;;;;;;;-145.79;78.08;76290.06;5264084;28;20404;-75
2023/03/13 08:47:10;;;;;;;4.97;2.55;;;;;;;-145.79;77.65;76287.94;5264374;28;20096;-75
2023/03/13 08:49:41;;;;;;;5.63;2.92;;;;;;;-145.79;78.41;76283.69;5263660;28;20032;-75
2023/03/13 08:52:12;;;;;;;6.10;2.70;;;;;;;-145.79;78.29;76287.94;5264260;28;20044;-75
2023/03/13 08:54:44;;;;;;;4.18;1.95;;;;;;;-145.79;78.79;76287.94;5263422;28;20028;-75
2023/03/13 08:57:15;;;;;;;6.65;2.35;;;;;;;-145.79;79.20;76292.16;5261439;28;20136;-75
2023/03/13 08:59:46;;;;;;;4.97;2.60;;;;;;;-145.79;80.14;76296.41;5243015;28;20446;-75
2023/03/13 09:02:19;;;;;;;4.82;2.78;;;;;;;-145.79;79.74;76292.16;5254305;28;20457;-75
2023/03/13 09:04:51;;;;;;;6.40;3.28;;;;;;;-145.79;79.89;76283.69;5263682;28;20048;-75
2023/03/13 09:07:23;;;;;;;5.78;2.50;;;;;;;-145.79;79.87;76296.41;5264176;28;20461;-75
2023/03/13 09:09:54;;;;;;;5.53;2.75;;;;;;;-145.79;79.95;76304.88;5263068;28;20045;-75
2023/03/13 09:12:26;;;;;;;5.47;2.63;;;;;;;-145.79;80.40;76296.41;5264086;28;20032;-75
2023/03/13 09:14:57;;;;;;;7.20;2.83;;;;;;;-145.79;80.22;76302.75;5255763;28;20028;-76
2023/03/13 09:17:31;;;;;;;7.90;2.80;;;;;;;-145.79;80.51;76287.94;5262053;28;20037;-75
2023/03/13 09:20:03;;;;;;;7.63;3.10;;;;;;;-145.79;80.29;76281.56;5263507;28;20029;-74
2023/03/13 09:22:35;;;;;;;7.28;2.90;;;;;;;-145.79;80.36;76287.94;5252060;28;20021;-76
2023/03/13 09:25:06;;;;;;;4.82;2.83;;;;;;;-145.79;80.20;76264.63;5260044;28;20104;-75
2023/03/13 09:27:38;;;;;;;3.75;2.60;;;;;;;-145.79;80.06;76262.50;5264025;28;20045;-75
2023/03/13 09:30:10;;;;;;;7.95;4.50;;;;;;;-145.79;79.27;76249.78;5263003;28;20025;-75
2023/03/13 09:32:41;;;;;;;7.60;2.97;;;;;;;-145.79;79.08;76224.38;5249548;28;20029;-76
2023/03/13 09:35:13;;;;;;;5.20;2.13;;;;;;;-145.79;78.30;76213.75;5242779;28;20026;-75
2023/03/13 09:37:44;;;;;;;3.97;2.45;;;;;;;-145.79;78.27;76207.41;5242209;28;20022;-75
2023/03/13 09:40:19;;;;;;;4.60;2.70;;;;;;;-145.79;77.28;76190.47;5242209;28;20522;-76
2023/03/13 09:42:59;;;;;;;3.58;2.70;;;;;;;-145.79;76.08;76177.75;5262998;28;20034;-75
2023/03/13 09:45:35;;;;;;;4.25;2.10;;;;;;;-145.79;75.65;76165.03;5246797;28;20067;-75
2023/03/13 09:48:28;;;;;;;5.82;2.47;;;;;;;-145.79;76.00;76162.91;5241933;28;20033;-75
2023/03/13 09:51:12;;;;;;;3.92;2.17;;;;;;;-145.79;75.37;76148.06;5241953;28;20378;-75
2023/03/13 09:54:00;;;;;;;5.18;2.60;;;;;;;-145.79;73.83;76135.38;5241659;28;20028;-74
2023/03/13 09:56:50;;;;;;;4.68;2.17;;;;;;;-145.79;73.32;76143.84;5241754;28;20029;-75
2023/03/13 09:59:47;;;;;;;3.72;2.00;;;;;;;-145.79;73.53;76126.88;5241049;28;20092;-76
2023/03/13 10:02:26;;;;;;;2.97;2.20;;;;;;;-145.79;73.09;76120.53;5250962;28;20111;-73
2023/03/13 10:05:16;;;;;;;4.18;2.72;;;;;;;-145.79;72.52;76122.66;5241456;28;20041;-73
2023/03/13 10:07:47;;;;;;;6.78;2.30;;;;;;;-145.79;72.43;76120.53;5241996;28;20029;-73
2023/03/13 10:10:39;;;;;;;19.30;15.95;;;;;;;-145.79;72.04;76101.47;5242172;28;20588;-73
2023/03/13 10:13:32;;;;;;;3.33;2.03;;;;;;;-145.79;71.49;76092.97;5241524;28;20036;-73
2023/03/13 10:16:10;;;;;;;4.75;2.33;;;;;;;-145.79;71.71;76090.88;5241917;28;20029;-73
2023/03/13 10:18:46;;;;;;;5.93;2.05;;;;;;;-145.79;71.20;76067.56;5240838;28;20029;-73
2023/03/13 10:21:21;;;;;;;2.55;1.90;;;;;;;-145.79;70.89;76067.56;5241931;28;20029;-74
2023/03/13 10:24:17;;;;;;;2.88;2.45;;;;;;;-145.79;70.52;76078.16;5257079;28;20052;-75
2023/03/13 10:26:48;;;;;;;2.97;1.70;;;;;;;-145.79;70.60;76071.78;5261764;28;20036;-75
2023/03/13 10:29:25;;;;;;;2.60;1.67;;;;;;;-145.79;70.21;76067.56;5262264;28;20025;-75
2023/03/13 10:31:58;;;;;;;2.47;1.80;;;;;;;-145.79;70.09;76065.44;5262500;28;20108;-76
2023/03/13 10:34:54;;;;;;;1.92;1.73;;;;;;;-145.79;70.14;76054.84;5261555;28;20040;-74
2023/03/13 10:37:31;;;;;;;2.20;1.67;;;;;;;-145.79;69.61;76063.31;5262430;28;20048;-76
2023/03/13 10:40:22;;;;;;;5.78;2.55;;;;;;;-145.79;68.79;76048.47;5260383;28;20028;-76
2023/03/13 10:43:24;;;;;;;2.85;1.58;;;;;;;-145.79;68.55;76031.53;5262187;28;20025;-71
2023/03/13 10:45:57;;;;;;;3.45;1.80;;;;;;;-145.79;68.79;76033.66;5250244;28;20029;-66
2023/03/13 10:48:35;;;;;;;3.63;1.60;;;;;;;-145.79;69.43;76023.06;5260871;28;20033;-66
2023/03/13 10:51:20;;;;;;;1.60;1.50;;;;;;;-145.79;69.69;76031.53;5261751;28;20350;-67
2023/03/13 10:53:51;;;;;;;3.60;1.85;;;;;;;-145.79;69.03;76025.19;5261420;28;20029;-67
2023/03/13 10:56:28;;;;;;;3.20;1.35;;;;;;;-145.79;68.83;76016.69;5261152;28;20075;-66
2023/03/13 10:59:00;;;;;;;3.60;1.77;;;;;;;-145.79;68.42;76020.94;5262169;28;20049;-67
2023/03/13 11:01:41;;;;;;;5.60;2.20;;;;;;;-145.79;68.67;76010.34;5260953;28;20496;-67
2023/03/13 11:04:27;;;;;;;3.67;1.70;;;;;;;-145.79;68.06;76008.22;5254471;28;20025;-67
2023/03/13 11:07:05;;;;;;;1.58;1.48;;;;;;;-145.79;68.30;76012.47;5241519;28;20032;-66
2023/03/13 11:09:36;;;;;;;6.18;4.85;;;;;;;-145.79;68.42;75995.50;5240210;28;20152;-66
2023/03/13 11:12:19;;;;;;;3.88;1.70;;;;;;;-145.79;67.27;76004.00;5240694;28;20022;-67
2023/03/13 11:14:58;;;;;;;4.22;1.65;;;;;;;-145.79;65.99;75993.41;5246001;28;20487;-66
2023/03/13 11:17:38;;;;;;;5.07;2.40;;;;;;;-145.79;65.74;75987.03;5256983;28;20021;-67
2023/03/13 11:20:24;;;;;;;4.60;1.90;;;;;;;-145.79;64.90;75989.16;5242945;28;20068;-66
2023/03/13 11:23:17;;;;;;;5.15;1.45;;;;;;;-145.79;63.90;75970.09;5246091;28;20384;-66
2023/03/13 11:26:03;;;;;;;2.17;1.25;;;;;;;-145.79;61.15;75972.22;5241244;28;20524;-66
2023/03/13 11:28:40;;;;;;;3.83;1.50;;;;;;;-145.79;60.09;75946.78;5260326;28;20108;-66
2023/03/13 11:31:22;;;;;;;5.13;1.70;;;;;;;-145.79;60.10;75940.41;5250644;28;20057;-66
2023/03/13 11:34:32;;;;;;;2.83;1.50;;;;;;;-145.79;60.78;75927.72;5244778;28;20583;-66
2023/03/13 11:37:15;;;;;;;2.53;1.30;;;;;;;-145.79;60.09;75946.78;5258365;28;20033;-66
2023/03/13 11:40:18;;;;;;;4.78;2.05;;;;;;;-145.79;60.65;75940.41;5249953;28;20135;-66
2023/03/13 11:42:59;;;;;;;3.53;1.48;;;;;;;-145.79;60.58;75944.66;5252940;28;20108;-66
2023/03/13 11:45:53;;;;;;;3.15;1.60;;;;;;;-145.79;60.18;75927.72;5243164;28;20447;-66
2023/03/13 11:48:24;;;;;;;2.95;1.42;;;;;;;-145.79;59.98;75915.00;5247728;28;20039;-66
2023/03/13 11:51:01;;;;;;;3.38;1.50;;;;;;;-145.79;58.28;75902.28;5243642;28;20029;-66
2023/03/13 11:53:51;;;;;;;7.75;1.80;;;;;;;-145.79;57.73;75906.53;5244003;28;20080;-66
2023/03/13 11:56:39;;;;;;;3.88;1.77;;;;;;;-145.79;58.21;75898.03;5264706;28;20025;-66
2023/03/13 11:59:41;;;;;;;16.88;11.77;;;;;;;-145.79;58.36;75891.69;5257801;28;20053;-66
2023/03/13 12:02:56;;;;;;;3.47;1.65;;;;;;;-145.79;59.63;75902.28;5262947;28;20032;-67
2023/03/13 12:05:32;;;;;;;4.43;1.83;;;;;;;-145.79;60.38;75902.28;5240858;28;20045;-68
2023/03/13 12:08:11;;;;;;;2.80;1.70;;;;;;;-145.79;60.97;75898.03;5242376;28;20084;-68
2023/03/13 12:10:47;;;;;;;5.18;1.80;;;;;;;-145.79;61.20;75885.34;5245009;28;20493;-68
2023/03/13 12:13:27;;;;;;;2.90;1.45;;;;;;;-145.79;60.96;75876.84;5253366;28;20074;-69
2023/03/13 12:16:05;;;;;;;3.85;1.70;;;;;;;-145.79;60.12;75883.22;5265073;28;20075;-70
2023/03/13 12:18:39;;;;;;;2.70;1.40;;;;;;;-145.79;59.06;75887.44;5250462;28;20385;-70
2023/03/13 12:21:19;;;;;;;5.78;1.95;;;;;;;-145.79;60.44;75881.09;5249388;28;20542;-70
2023/03/13 12:24:03;;;;;;;3.25;1.70;;;;;;;-145.79;60.28;75872.63;5243635;28;20053;-70
2023/03/13 12:26:50;;;;;;;3.53;1.55;;;;;;;-145.79;59.65;75859.91;5256802;28;20419;-72
2023/03/13 12:29:36;;;;;;;2.97;1.40;;;;;;;-145.79;59.44;75849.31;5249148;28;20033;-71
2023/03/13 12:32:17;;;;;;;3.10;1.52;;;;;;;-145.79;58.62;75834.47;5243760;28;20029;-73
2023/03/13 12:35:06;;;;;;;5.45;1.80;;;;;;;-145.79;58.66;75828.13;5246877;28;20391;-71
2023/03/13 12:37:50;;;;;;;4.50;1.50;;;;;;;-145.79;58.06;75828.13;5259643;28;20033;-70
2023/03/13 12:40:33;;;;;;;2.42;1.75;;;;;;;-145.79;56.85;75802.69;5251872;28;20045;-72
2023/03/13 12:43:13;;;;;;;4.70;1.50;;;;;;;-145.79;55.72;75775.16;5260527;28;20045;-71
2023/03/13 12:45:59;;;;;;;7.13;1.95;;;;;;;-145.79;54.84;75773.03;5248096;28;20496;-74
2023/03/13 12:48:40;;;;;;;6.55;1.50;;;;;;;-145.79;54.34;75764.56;5251416;28;20036;-70
2023/03/13 12:51:30;;;;;;;4.55;1.48;;;;;;;-145.79;53.50;75737.00;5258724;28;20045;-70
2023/03/13 12:54:10;;;;;;;6.43;1.65;;;;;;;-145.79;52.25;75722.19;5260434;28;20438;-70
2023/03/13 12:57:12;;;;;;;3.80;1.48;;;;;;;-145.79;52.81;75711.59;5262088;28;20059;-70
2023/03/13 12:59:50;;;;;;;4.30;1.50;;;;;;;-145.79;51.94;75713.72;5244114;28;20060;-69
2023/03/13 13:02:27;;;;;;;6.25;1.50;;;;;;;-145.79;51.25;75677.69;5252296;28;20492;-69
2023/03/13 13:05:01;;;;;;;10.40;2.83;;;;;;;-145.79;50.82;75669.22;5243165;28;20022;-69
2023/03/13 13:07:35;;;;;;;20.08;2.53;;;;;;;-145.79;49.80;75654.38;5242125;28;20034;-68
2023/03/13 13:10:10;;;;;;;8.73;2.08;;;;;;;-145.79;50.12;75664.97;5261652;28;20094;-67
2023/03/13 13:12:44;;;;;;;17.88;3.17;;;;;;;-145.79;50.89;75664.97;5258437;28;20071;-67
2023/03/13 13:15:25;;;;;;;19.75;8.68;;;;;;;-145.79;52.13;75656.50;5252464;28;20021;-67
2023/03/13 13:18:05;;;;;;;6.22;1.60;;;;;;;-145.79;53.09;75698.88;5244701;28;20037;-67
2023/03/13 13:20:43;;;;;;;4.55;1.60;;;;;;;-145.79;53.80;75728.53;5256001;28;20037;-67
2023/03/13 13:23:15;;;;;;;6.35;2.40;;;;;;;-145.79;54.63;75720.06;5256473;28;20037;-67
2023/03/13 13:25:48;;;;;;;4.68;1.80;;;;;;;-145.79;54.54;75707.34;5263520;28;20487;-67
2023/03/13 13:28:31;;;;;;;3.17;1.80;;;;;;;-145.79;55.13;75673.44;5253916;28;20028;-67
2023/03/13 13:31:40;;;;;;;3.90;1.40;;;;;;;-145.79;54.97;75656.50;5248835;28;20056;-68
2023/03/13 13:34:33;;;;;;;3.10;1.70;;;;;;;-145.79;55.12;75639.56;5251238;28;20041;-67
2023/03/13 13:37:19;;;;;;;3.83;1.45;;;;;;;-145.79;55.21;75648.03;5253977;28;20372;-67
2023/03/13 13:39:53;;;;;;;2.40;1.45;;;;;;;-145.79;54.86;75677.69;5241388;28;20092;-67
2023/03/13 13:42:30;;;;;;;3.05;1.50;;;;;;;-145.79;55.44;75652.25;5240361;28;20350;-67
2023/03/13 13:45:13;;;;;;;3.55;1.50;;;;;;;-145.79;55.07;75675.56;5239680;28;20062;-67
2023/03/13 13:47:49;;;;;;;5.80;2.05;;;;;;;-145.79;55.14;75677.69;5255822;28;20079;-67
2023/03/13 13:50:24;;;;;;;4.38;1.65;;;;;;;-145.79;55.04;75673.44;5260549;28;20023;-67
2023/03/13 13:53:30;;;;;;;4.70;1.77;;;;;;;-145.79;55.17;75648.03;5262093;28;20078;-68
2023/03/13 13:56:08;;;;;;;4.97;1.85;;;;;;;-145.79;54.99;75658.63;5253067;28;20021;-69
2023/03/13 13:58:43;;;;;;;4.28;1.90;;;;;;;-145.79;55.17;75658.63;5241420;28;20433;-68
2023/03/13 14:01:15;;;;;;;4.10;1.90;;;;;;;-145.79;54.04;75648.03;5241401;28;20153;-68
2023/03/13 14:03:52;;;;;;;4.25;1.70;;;;;;;-145.79;53.55;75645.91;5245730;28;20036;-68
2023/03/13 14:06:29;;;;;;;8.60;1.60;;;;;;;-145.79;52.51;75624.72;5240649;28;20465;-68
2023/03/13 14:09:18;;;;;;;3.83;1.65;;;;;;;-145.79;51.68;75614.13;5249506;28;20040;-67
2023/03/13 14:11:50;;;;;;;6.63;1.60;;;;;;;-145.79;50.09;75618.38;5248732;28;20025;-70
2023/03/13 14:14:21;;;;;;;6.90;1.83;;;;;;;-145.79;50.18;75620.47;5261720;28;20082;-67
2023/03/13 14:16:56;;;;;;;3.28;1.52;;;;;;;-145.79;50.33;75618.38;5260649;28;20048;-68
2023/03/13 14:19:40;;;;;;;3.90;1.70;;;;;;;-145.79;50.89;75631.06;5260001;28;20135;-68
2023/03/13 14:22:13;;;;;;;5.15;1.50;;;;;;;-145.79;51.85;75652.25;5245297;28;20480;-68
2023/03/13 14:24:57;;;;;;;9.35;2.15;;;;;;;-145.79;52.11;75628.97;5254088;28;20037;-68
2023/03/13 14:27:29;;;;;;;6.65;1.50;;;;;;;-145.79;51.36;75609.88;5254737;28;20117;-67
2023/03/13 14:30:07;;;;;;;5.35;1.73;;;;;;;-145.79;51.11;75597.19;5249996;28;20115;-67
2023/03/13 14:32:39;;;;;;;4.10;1.60;;;;;;;-145.79;52.22;75633.19;5249499;28;20026;-67
2023/03/13 14:35:18;;;;;;;6.45;1.90;;;;;;;-145.79;51.44;75626.84;5241089;28;20459;-67
2023/03/13 14:37:53;;;;;;;5.82;1.52;;;;;;;-145.79;51.86;75592.94;5247443;28;20036;-67
2023/03/13 14:40:30;;;;;;;3.25;1.50;;;;;;;-145.79;52.20;75588.72;5259821;28;20111;-67
2023/03/13 14:43:02;;;;;;;3.05;1.50;;;;;;;-145.79;52.34;75573.88;5248203;28;20040;-67
2023/03/13 14:45:38;;;;;;;4.63;1.80;;;;;;;-145.79;52.30;75546.34;5248988;28;20025;-67
2023/03/13 14:48:25;;;;;;;;;;;;;;;-145.79;51.94;75537.84;5240649;28;20025;-67
2023/03/13 14:51:10;;;;;;;4.60;1.60;;;;;;;-145.79;52.18;75544.22;5250677;28;20070;-67
2023/03/13 14:54:01;;;;;;;2.60;1.42;;;;;;;-145.79;51.33;75537.84;5255103;28;20071;-67
2023/03/13 14:56:43;;;;;;;4.45;1.52;;;;;;;-145.79;50.71;75537.84;5249521;28;20037;-67
2023/03/13 14:59:24;;;;;;;4.05;1.33;;;;;;;-145.79;49.98;75556.94;5241175;28;20045;-67
2023/03/13 15:02:12;;;;;;;3.95;1.13;;;;;;;-145.79;50.12;75573.88;5250558;28;20483;-67
2023/03/13 15:04:58;;;;;;;4.63;1.60;;;;;;;-145.79;50.35;75571.75;5258521;28;20060;-67
2023/03/13 15:07:40;;;;;;;;;;;;;;;-145.79;50.31;75552.69;5254942;28;20091;-67
2023/03/13 15:10:19;;;;;;;4.18;1.50;;;;;;;-145.79;49.59;75533.63;5241425;28;19968;-67
2023/03/13 15:12:51;;;;;;;4.68;1.35;;;;;;;-145.79;48.71;75546.34;5249409;28;20469;-67
2023/03/13 15:15:22;;;;;;;4.30;1.88;;;;;;;-145.79;48.68;75523.03;5250922;28;20120;-67
2023/03/13 15:17:54;;;;;;;3.42;1.58;;;;;;;-145.79;48.11;75512.44;5239807;28;20104;-67
2023/03/13 15:20:25;;;;;;;5.68;1.65;;;;;;;-145.79;47.96;75501.84;5241105;28;20057;-67
2023/03/13 15:22:57;;;;;;;5.00;1.50;;;;;;;-145.79;48.10;75495.47;5244149;28;20124;-67
2023/03/13 15:25:28;;;;;;;5.05;2.28;;;;;;;-145.79;47.88;75499.72;5246194;28;20033;-67
2023/03/13 15:27:59;;;;;;;6.35;1.77;;;;;;;-145.79;47.80;75508.19;5245000;28;20112;-68
2023/03/13 15:30:33;;;;;;;9.15;1.98;;;;;;;-145.79;46.80;75514.56;5244060;28;20033;-68
2023/03/13 15:33:05;;;;;;;6.43;2.20;;;;;;;-145.79;47.03;75529.38;5245190;28;20338;-68
2023/03/13 15:35:36;;;;;;;4.80;1.85;;;;;;;-145.79;47.32;75527.25;5243931;28;20131;-67
2023/03/13 15:38:19;;;;;;;4.18;1.70;;;;;;;-145.79;47.33;75529.38;5244903;28;20108;-67
2023/03/13 15:40:51;;;;;;;4.68;1.58;;;;;;;-145.79;46.35;75516.66;5244688;28;20029;-68
2023/03/13 15:43:23;;;;;;;6.07;2.47;;;;;;;-145.79;46.28;75503.97;5243990;28;20084;-68
2023/03/13 15:45:54;;;;;;;4.28;1.90;;;;;;;-145.79;45.87;75499.72;5245761;28;20083;-68
2023/03/13 15:48:27;;;;;;;3.50;1.83;;;;;;;-145.79;45.83;75491.25;5244068;28;20022;-68
2023/03/13 15:51:02;;;;;;;6.97;1.88;;;;;;;-145.79;45.43;75480.66;5246808;28;20337;-67
2023/03/13 15:53:34;;;;;;;;;;;;;;;-145.79;45.36;75463.69;5255912;28;20025;-68
2023/03/13 15:56:17;;;;;;;7.95;2.55;;;;;;;-145.79;45.20;75491.25;5250271;28;19920;-67
2023/03/13 15:58:49;;;;;;;5.00;2.05;;;;;;;-145.79;45.05;75476.41;5244113;28;20460;-68
2023/03/13 16:01:21;;;;;;;11.45;3.20;;;;;;;-145.79;45.40;75478.53;5248476;28;20033;-68
2023/03/13 16:03:53;;;;;;;6.90;2.20;;;;;;;-145.79;45.48;75470.06;5254019;28;20425;-68
2023/03/13 16:06:29;;;;;;;6.55;2.53;;;;;;;-145.79;46.27;75491.25;5257421;28;20037;-68
2023/03/13 16:09:04;;;;;;;4.07;2.40;;;;;;;-145.79;45.65;75467.94;5265132;28;20033;-68
2023/03/13 16:11:35;;;;;;;5.72;2.10;;;;;;;-145.79;45.50;75476.41;5256756;28;20128;-68
2023/03/13 16:14:07;;;;;;;4.38;1.83;;;;;;;-145.79;45.14;75474.28;5251131;28;20099;-67
2023/03/13 16:16:38;;;;;;;4.22;1.92;;;;;;;-145.79;45.58;75476.41;5264816;28;20103;-67
2023/03/13 16:19:10;;;;;;;4.70;1.42;;;;;;;-145.79;45.49;75482.78;5261797;28;20553;-67
2023/03/13 16:21:47;;;;;;;5.75;2.00;;;;;;;-145.79;45.78;75491.25;5247029;28;20487;-67
2023/03/13 16:24:19;;;;;;;6.50;2.30;;;;;;;-145.79;46.55;75497.59;5243538;28;20045;-67
2023/03/13 16:26:50;;;;;;;5.40;2.25;;;;;;;-145.79;47.33;75514.56;5242910;28;20036;-67
2023/03/13 16:29:22;;;;;;;4.75;1.95;;;;;;;-145.79;47.91;75520.91;5243640;28;20414;-70
